Time;durP1;ratioP1;P1;durP2;ratioP2;P2;SDS_P1;SDS_P2;PMS_P1;PMS_P2;Temp;Humidity;BMP_temperature;BMP_pressure;BME280_temperature;BME280_humidity;BME280_pressure;Samples;Min_cycle;Max_cycle;Signal;HPM_P1;HPM_P2
2022/12/13 00:01:39;;;;;;;40.90;21.20;;;;;;;-1.71;42.98;101432.94;7396142;19;19998;-55
2022/12/13 00:04:06;;;;;;;44.97;23.40;;;;;;;-1.88;43.04;101430.25;7395155;19;19998;-55
2022/12/13 00:06:33;;;;;;;47.20;22.80;;;;;;;-2.26;43.88;101428.22;7397130;19;20019;-55
2022/12/13 00:09:00;;;;;;;48.67;23.23;;;;;;;-2.18;43.81;101424.34;7393699;19;20435;-56
2022/12/13 00:11:32;;;;;;;42.15;22.02;;;;;;;-2.28;44.05;101419.63;7385998;19;20018;-59
2022/12/13 00:13:58;;;;;;;45.65;22.27;;;;;;;-2.35;44.29;101416.28;7393301;19;20378;-58
2022/12/13 00:16:25;;;;;;;46.72;21.55;;;;;;;-2.56;44.60;101417.75;7396805;19;20019;-60
2022/12/13 00:18:54;;;;;;;43.05;21.50;;;;;;;-2.60;44.49;101412.88;7395238;19;20333;-59
2022/12/13 00:21:22;;;;;;;44.38;22.48;;;;;;;-2.32;44.21;101413.94;7393534;19;20002;-58
2022/12/13 00:23:49;;;;;;;43.67;21.90;;;;;;;-2.25;44.35;101406.59;7394631;19;19998;-59
2022/12/13 00:26:18;;;;;;;42.58;22.08;;;;;;;-2.09;44.02;101406.88;7395470;19;20002;-59
2022/12/13 00:28:46;;;;;;;43.55;21.70;;;;;;;-1.88;43.43;101408.84;7392338;19;20010;-60
2022/12/13 00:31:12;;;;;;;44.50;21.98;;;;;;;-2.10;43.49;101414.06;7393903;19;20007;-58
2022/12/13 00:33:38;;;;;;;46.83;22.52;;;;;;;-2.46;44.31;101410.75;7392790;19;20002;-58
2022/12/13 00:36:06;;;;;;;47.25;22.95;;;;;;;-2.56;44.61;101405.22;7394857;19;20002;-59
2022/12/13 00:38:33;;;;;;;48.75;24.13;;;;;;;-2.85;45.21;101405.16;7394883;19;20010;-58
2022/12/13 00:40:59;;;;;;;47.63;24.77;;;;;;;-2.29;44.26;101412.66;7392959;19;20026;-58
2022/12/13 00:43:24;;;;;;;45.58;23.63;;;;;;;-2.21;43.73;101404.25;7393601;19;20006;-60
2022/12/13 00:45:50;;;;;;;57.95;29.58;;;;;;;-2.65;44.55;101393.25;7394433;19;19998;-59
2022/12/13 00:48:16;;;;;;;57.67;29.95;;;;;;;-2.28;43.91;101400.91;7394247;19;19994;-60
2022/12/13 00:50:41;;;;;;;49.33;24.80;;;;;;;-2.59;44.20;101403.81;7391248;19;20030;-60
2022/12/13 00:53:08;;;;;;;42.85;22.63;;;;;;;-2.45;43.96;101399.00;7391767;19;20002;-59
2022/12/13 00:55:39;;;;;;;43.65;21.73;;;;;;;-2.68;44.43;101394.56;7393755;19;20023;-58
2022/12/13 00:58:05;;;;;;;42.90;21.92;;;;;;;-2.68;44.30;101399.06;7394154;19;20011;-59
2022/12/13 01:00:31;;;;;;;44.17;22.27;;;;;;;-2.67;44.67;101396.16;7392082;19;19998;-59
2022/12/13 01:02:56;;;;;;;42.53;21.90;;;;;;;-2.76;44.54;101397.59;7391662;19;19998;-59
2022/12/13 01:05:22;;;;;;;48.80;24.00;;;;;;;-2.73;44.61;101391.75;7393620;19;19999;-58
2022/12/13 01:07:48;;;;;;;45.70;22.77;;;;;;;-2.27;43.72;101389.16;7394229;19;20078;-60
2022/12/13 01:10:14;;;;;;;43.33;22.27;;;;;;;-2.03;43.15;101393.34;7392725;19;20006;-59
2022/12/13 01:12:39;;;;;;;46.03;22.60;;;;;;;-2.16;43.04;101387.47;7393398;19;20170;-59
2022/12/13 01:15:06;;;;;;;45.55;23.20;;;;;;;-2.54;43.64;101383.59;7393464;19;19995;-59
2022/12/13 01:17:34;;;;;;;49.13;23.95;;;;;;;-2.87;44.50;101377.88;7393027;19;20561;-60
2022/12/13 01:20:00;;;;;;;47.60;22.75;;;;;;;-2.97;44.79;101385.69;7391692;19;20608;-59
2022/12/13 01:22:25;;;;;;;51.15;22.98;;;;;;;-3.26;45.47;101387.44;7390961;19;20066;-60
2022/12/13 01:24:51;;;;;;;55.30;24.10;;;;;;;-2.88;44.98;101389.63;7391453;19;20028;-59
2022/12/13 01:27:17;;;;;;;48.08;24.23;;;;;;;-3.01;44.92;101392.56;7393357;19;20007;-59
2022/12/13 01:29:42;;;;;;;51.50;24.85;;;;;;;-2.95;44.80;101388.91;7392777;19;19991;-59
2022/12/13 01:32:08;;;;;;;48.00;23.70;;;;;;;-2.87;44.50;101383.22;7393312;19;19999;-59
2022/12/13 01:34:34;;;;;;;52.10;23.52;;;;;;;-2.82;44.32;101387.84;7390126;19;20008;-59
2022/12/13 01:36:59;;;;;;;44.67;22.60;;;;;;;-2.95;44.68;101388.91;7392176;19;20086;-59
2022/12/13 01:39:26;;;;;;;44.42;21.60;;;;;;;-2.80;44.58;101386.56;7390851;19;20017;-60
2022/12/13 01:41:58;;;;;;;43.75;21.67;;;;;;;-2.78;44.32;101386.31;7393089;19;19994;-60
2022/12/13 01:45:12;;;;;;;45.35;22.17;;;;;;;-3.03;44.78;101382.09;7391226;19;19998;-58
2022/12/13 01:47:50;;;;;;;42.88;21.08;;;;;;;-3.05;45.04;101394.06;7389843;19;20010;-59
2022/12/13 01:50:25;;;;;;;46.70;21.73;;;;;;;-3.05;44.99;101378.84;7391499;19;20026;-59
2022/12/13 01:52:54;;;;;;;45.03;22.17;;;;;;;-2.99;45.11;101380.56;7392843;19;19998;-59
2022/12/13 01:55:23;;;;;;;44.15;21.88;;;;;;;-3.00;45.13;101378.13;7391963;19;20310;-59
2022/12/13 01:57:51;;;;;;;42.35;21.95;;;;;;;-2.85;44.41;101380.31;7392363;19;20027;-58
2022/12/13 02:00:18;;;;;;;41.10;21.00;;;;;;;-2.94;44.83;101387.09;7391122;19;19998;-59
2022/12/13 02:02:47;;;;;;;48.15;22.77;;;;;;;-2.98;44.76;101390.22;7392095;19;20003;-58
2022/12/13 02:05:21;;;;;;;46.78;22.33;;;;;;;-3.06;45.24;101384.41;7392633;19;20010;-59
2022/12/13 02:07:47;;;;;;;43.40;21.65;;;;;;;-3.18;45.36;101384.44;7392373;19;20023;-59
2022/12/13 02:10:13;;;;;;;46.30;22.48;;;;;;;-3.07;45.29;101380.13;7391376;19;20021;-59
2022/12/13 02:12:40;;;;;;;46.47;21.88;;;;;;;-3.11;45.39;101371.78;7390996;19;19999;-59
2022/12/13 02:15:12;;;;;;;45.38;21.63;;;;;;;-3.22;45.36;101361.91;7391967;19;20005;-59
2022/12/13 02:17:56;;;;;;;44.55;21.00;;;;;;;-3.26;45.15;101374.09;7391179;19;20003;-59
2022/12/13 02:20:31;;;;;;;43.17;22.13;;;;;;;-3.19;45.23;101367.59;7391089;19;20115;-59
2022/12/13 02:23:12;;;;;;;46.47;21.23;;;;;;;-2.82;44.22;101366.47;7390726;19;19999;-59
2022/12/13 02:26:07;;;;;;;42.33;20.30;;;;;;;-2.56;43.72;101364.28;7391275;19;20462;-59
2022/12/13 02:28:47;;;;;;;41.20;20.30;;;;;;;-2.44;43.39;101367.75;7389852;19;20009;-59
2022/12/13 02:31:22;;;;;;;41.13;20.25;;;;;;;-2.64;43.47;101368.16;7389956;19;20066;-59
2022/12/13 02:33:48;;;;;;;48.70;22.50;;;;;;;-3.11;44.55;101370.94;7390790;19;20003;-59
2022/12/13 02:36:25;;;;;;;48.03;23.48;;;;;;;-2.98;44.42;101371.53;7390636;19;20007;-59
2022/12/13 02:39:00;;;;;;;51.95;24.77;;;;;;;-3.24;45.22;101364.03;7390915;19;20024;-59
2022/12/13 02:41:44;;;;;;;48.38;22.83;;;;;;;-3.02;44.89;101362.34;7389049;19;20408;-59
2022/12/13 02:44:24;;;;;;;44.33;22.20;;;;;;;-2.66;43.60;101354.22;7390541;19;19999;-59
2022/12/13 02:47:05;;;;;;;44.15;22.50;;;;;;;-2.92;43.94;101364.41;7389171;19;20002;-59
2022/12/13 02:49:38;;;;;;;48.20;22.92;;;;;;;-2.89;44.79;101366.63;7390405;19;19997;-59
2022/12/13 02:52:08;;;;;;;49.53;24.30;;;;;;;-2.71;44.56;101362.97;7390615;19;20005;-59
2022/12/13 02:54:34;;;;;;;45.60;22.17;;;;;;;-2.71;44.04;101354.13;7396018;19;20102;-60
2022/12/13 02:56:59;;;;;;;49.45;23.70;;;;;;;-2.67;44.14;101355.28;7397839;19;19999;-58
2022/12/13 02:59:38;;;;;;;47.25;22.30;;;;;;;-2.80;44.37;101356.34;7397817;19;20001;-58
2022/12/13 03:02:22;;;;;;;47.15;23.45;;;;;;;-2.79;44.20;101349.97;7397828;19;19999;-59
2022/12/13 03:08:14;;;;;;;;;;;;;;;-2.79;44.73;101352.66;7397161;19;20006;-59
2022/12/13 03:10:52;;;;;;;51.22;22.58;;;;;;;-2.65;44.36;101343.28;7395545;19;19926;-58
2022/12/13 03:13:46;;;;;;;47.45;23.80;;;;;;;-2.48;43.98;101338.00;7396917;19;20015;-59
2022/12/13 03:16:41;;;;;;;67.05;32.78;;;;;;;-2.25;43.52;101342.41;7397872;19;20023;-59
2022/12/13 03:19:09;;;;;;;68.65;31.35;;;;;;;-2.46;43.52;101332.38;7397837;19;20003;-58
2022/12/13 03:21:44;;;;;;;54.20;25.42;;;;;;;-2.79;44.41;101337.41;7395181;19;20453;-59
2022/12/13 03:24:10;;;;;;;49.72;25.67;;;;;;;-2.41;43.78;101333.31;7396832;19;20069;-59
2022/12/13 03:26:37;;;;;;;75.63;34.28;;;;;;;-2.57;43.79;101342.09;7396681;19;20003;-59
2022/12/13 03:29:04;;;;;;;98.53;43.88;;;;;;;-2.76;44.17;101338.81;7397344;19;20021;-59
2022/12/13 03:31:29;;;;;;;65.28;33.17;;;;;;;-2.57;44.21;101343.97;7395110;19;20007;-58
2022/12/13 03:33:55;;;;;;;69.15;36.10;;;;;;;-2.87;44.42;101337.00;7396033;19;20009;-59
2022/12/13 03:36:21;;;;;;;55.95;26.40;;;;;;;-3.07;44.98;101337.41;7396798;19;20009;-59
2022/12/13 03:38:49;;;;;;;50.88;24.00;;;;;;;-3.08;44.98;101335.75;7396578;19;20100;-59
2022/12/13 03:41:18;;;;;;;44.53;21.10;;;;;;;-2.92;44.68;101336.91;7392521;19;20012;-59
2022/12/13 03:43:44;;;;;;;49.97;22.52;;;;;;;-2.87;44.49;101328.97;7395700;19;20006;-59
2022/12/13 03:46:10;;;;;;;45.08;22.20;;;;;;;-3.22;44.85;101327.22;7396574;19;20031;-59
2022/12/13 03:48:36;;;;;;;47.88;22.88;;;;;;;-3.23;45.23;101328.25;7396147;19;20007;-59
2022/12/13 03:51:02;;;;;;;41.50;22.70;;;;;;;-2.83;44.33;101332.78;7392796;19;20083;-59
2022/12/13 03:53:29;;;;;;;46.38;22.73;;;;;;;-2.64;43.66;101334.22;7395799;19;20005;-59
2022/12/13 03:55:54;;;;;;;58.08;30.42;;;;;;;-2.55;43.51;101336.53;7395685;19;20470;-59
2022/12/13 03:58:20;;;;;;;88.30;42.55;;;;;;;-2.55;43.58;101339.19;7394253;19;20010;-59
2022/12/13 04:00:46;;;;;;;78.13;37.78;;;;;;;-2.72;44.12;101337.28;7393255;19;20396;-60
2022/12/13 04:03:12;;;;;;;74.68;37.28;;;;;;;-2.76;44.17;101338.81;7394678;19;20006;-59
2022/12/13 04:05:38;;;;;;;68.18;35.40;;;;;;;-2.89;44.56;101339.91;7394016;19;20006;-59
2022/12/13 04:08:04;;;;;;;79.28;36.38;;;;;;;-2.93;44.78;101335.25;7395240;19;20010;-59
2022/12/13 04:10:30;;;;;;;76.68;36.40;;;;;;;-2.83;44.77;101330.09;7393869;19;20010;-59
2022/12/13 04:15:47;;;;;;;77.70;37.13;;;;;;;-2.73;44.65;101326.81;7395327;19;19998;-59
2022/12/13 04:18:16;;;;;;;70.75;34.30;;;;;;;-2.52;44.59;101318.13;7395226;19;20026;-59
2022/12/13 04:20:41;;;;;;;55.20;27.48;;;;;;;-2.26;43.81;101327.41;7393632;19;20014;-58
2022/12/13 04:23:07;;;;;;;54.35;26.02;;;;;;;-2.32;44.02;101317.69;7394729;19;20328;-59
2022/12/13 04:25:33;;;;;;;52.63;26.23;;;;;;;-1.96;43.37;101301.38;7394160;19;19999;-59
2022/12/13 04:27:58;;;;;;;56.83;26.55;;;;;;;-1.87;43.08;101300.75;7392727;19;20014;-59
2022/12/13 04:30:24;;;;;;;53.35;27.05;;;;;;;-2.20;43.41;101308.78;7392884;19;20415;-59
2022/12/13 04:32:50;;;;;;;47.47;24.00;;;;;;;-2.48;44.26;101303.25;7393925;19;20070;-59
2022/12/13 04:35:16;;;;;;;47.97;22.70;;;;;;;-2.06;43.70;101308.22;7394639;19;19994;-58
2022/12/13 04:37:41;;;;;;;53.08;25.30;;;;;;;-1.88;43.42;101309.00;7395098;19;20031;-58
2022/12/13 04:40:08;;;;;;;52.30;25.00;;;;;;;-2.05;43.88;101317.84;7396680;19;20002;-59
2022/12/13 04:42:33;;;;;;;45.65;24.00;;;;;;;-1.89;43.78;101307.41;7394077;19;20014;-59
2022/12/13 04:44:59;;;;;;;48.53;23.70;;;;;;;-1.74;43.25;101306.81;7392497;19;19998;-58
2022/12/13 04:47:25;;;;;;;51.88;23.50;;;;;;;-1.92;43.72;101299.88;7394886;19;20013;-58
2022/12/13 04:49:51;;;;;;;45.63;23.17;;;;;;;-1.97;44.12;101297.91;7393464;19;20001;-58
2022/12/13 04:52:16;;;;;;;46.90;23.95;;;;;;;-1.75;44.01;101300.63;7394391;19;20002;-58
2022/12/13 04:54:42;;;;;;;53.90;24.33;;;;;;;-1.75;44.18;101286.47;7393759;19;20332;-58
2022/12/13 04:57:10;;;;;;;51.28;24.98;;;;;;;-1.55;43.91;101299.31;7391190;19;20011;-59
2022/12/13 04:59:36;;;;;;;47.58;24.38;;;;;;;-1.34;43.69;101295.84;7392807;19;20470;-59
2022/12/13 05:02:03;;;;;;;51.03;24.55;;;;;;;-1.22;43.49;101298.41;7392402;19;20005;-59
2022/12/13 05:04:29;;;;;;;51.55;25.52;;;;;;;-1.26;43.25;101294.59;7392755;19;19995;-59
2022/12/13 05:06:56;;;;;;;50.65;25.80;;;;;;;-1.66;44.10;101296.50;7394052;19;20014;-58
2022/12/13 05:09:22;;;;;;;49.45;25.27;;;;;;;-1.76;44.73;101298.22;7393291;19;20006;-58
2022/12/13 05:11:48;;;;;;;49.08;25.50;;;;;;;-1.78;44.96;101292.28;7388376;19;20042;-59
2022/12/13 05:14:14;;;;;;;46.60;21.77;;;;;;;-1.46;45.34;101295.13;7391778;19;20006;-59
2022/12/13 05:16:40;;;;;;;47.15;21.80;;;;;;;-1.11;44.63;101293.97;7392482;19;20009;-59
2022/12/13 05:19:05;;;;;;;41.13;20.17;;;;;;;-0.88;44.56;101297.44;7393059;19;20805;-59
2022/12/13 05:21:33;;;;;;;48.67;20.65;;;;;;;-0.93;44.57;101303.56;7390618;19;20002;-57
2022/12/13 05:24:01;;;;;;;41.88;21.23;;;;;;;-1.00;44.95;101286.88;7391686;19;20475;-58
2022/12/13 05:26:27;;;;;;;42.17;20.15;;;;;;;-0.93;44.97;101290.16;7390526;19;20328;-59
2022/12/13 05:28:56;;;;;;;44.63;20.77;;;;;;;-0.89;45.01;101293.97;7392945;19;20031;-58
2022/12/13 05:31:22;;;;;;;44.20;21.05;;;;;;;-0.88;44.98;101282.16;7391485;19;20019;-59
2022/12/13 05:33:47;;;;;;;44.55;21.10;;;;;;;-0.82;44.85;101289.22;7389956;19;20482;-58
2022/12/13 05:36:13;;;;;;;45.85;20.42;;;;;;;-0.69;44.90;101284.50;7391685;19;20022;-58
2022/12/13 05:38:39;;;;;;;42.13;20.45;;;;;;;-0.72;44.80;101285.81;7390153;19;20005;-59
2022/12/13 05:41:06;;;;;;;44.45;21.70;;;;;;;-0.73;44.89;101292.25;7390108;19;20159;-59
2022/12/13 05:43:31;;;;;;;45.40;20.83;;;;;;;-0.75;45.06;101292.50;7392389;19;20013;-59
2022/12/13 05:45:57;;;;;;;41.95;20.35;;;;;;;-0.76;45.18;101288.22;7391308;19;20382;-59
2022/12/13 05:48:23;;;;;;;45.25;20.92;;;;;;;-0.77;45.25;101281.22;7391959;19;20003;-59
2022/12/13 05:50:49;;;;;;;46.15;21.75;;;;;;;-0.72;45.14;101288.50;7391309;19;20015;-59
2022/12/13 05:53:16;;;;;;;48.20;21.25;;;;;;;-0.60;45.04;101286.47;7390504;19;19999;-57
2022/12/13 05:55:42;;;;;;;45.00;20.83;;;;;;;-0.63;44.92;101273.56;7391703;19;20007;-58
2022/12/13 05:58:11;;;;;;;41.25;20.40;;;;;;;-0.67;45.00;101271.66;7391056;19;20014;-58
2022/12/13 06:00:38;;;;;;;44.40;21.55;;;;;;;-0.68;45.18;101276.19;7390250;19;20003;-58
2022/12/13 06:03:03;;;;;;;45.30;21.70;;;;;;;-0.74;45.14;101270.00;7390770;19;20007;-58
2022/12/13 06:05:30;;;;;;;44.92;22.05;;;;;;;-0.79;45.83;101261.06;7391475;19;19994;-59
2022/12/13 06:07:56;;;;;;;49.40;22.63;;;;;;;-0.71;45.40;101270.53;7391287;19;20020;-59
2022/12/13 06:10:22;;;;;;;50.05;21.50;;;;;;;-0.77;45.81;101269.69;7390665;19;20401;-58
2022/12/13 06:12:48;;;;;;;45.38;21.02;;;;;;;-0.63;45.72;101276.25;7387024;19;20450;-59
2022/12/13 06:15:14;;;;;;;43.63;21.83;;;;;;;-0.43;45.34;101272.16;7391301;19;20005;-59
2022/12/13 06:17:40;;;;;;;44.15;21.75;;;;;;;-0.50;45.58;101277.72;7391687;19;19999;-60
2022/12/13 06:20:06;;;;;;;48.30;22.35;;;;;;;-0.46;45.46;101272.66;7389930;19;20078;-58
2022/12/13 06:22:32;;;;;;;51.08;23.20;;;;;;;-0.44;45.66;101282.06;7390554;19;20026;-58
2022/12/13 06:25:00;;;;;;;50.67;24.20;;;;;;;-0.48;45.99;101277.47;7390650;19;20044;-59
2022/12/13 06:27:26;;;;;;;49.67;22.95;;;;;;;-0.44;46.32;101284.75;7390784;19;20003;-59
2022/12/13 06:29:52;;;;;;;56.00;25.42;;;;;;;-0.47;46.32;101287.94;7389621;19;20458;-57
2022/12/13 06:32:18;;;;;;;55.67;24.67;;;;;;;-0.33;46.26;101282.16;7390848;19;19999;-60
2022/12/13 06:34:43;;;;;;;53.78;24.13;;;;;;;-0.34;46.17;101286.72;7388271;19;20006;-59
2022/12/13 06:37:11;;;;;;;57.65;25.55;;;;;;;-0.31;46.38;101282.69;7388911;19;20116;-59
2022/12/13 06:39:38;;;;;;;51.10;23.00;;;;;;;-0.25;46.43;101284.38;7388813;19;20106;-58
2022/12/13 06:42:06;;;;;;;54.47;24.20;;;;;;;-0.23;46.31;101290.28;7390588;19;20030;-60
2022/12/13 06:44:32;;;;;;;57.20;23.83;;;;;;;-0.30;46.43;101289.69;7390028;19;20042;-59
2022/12/13 06:47:00;;;;;;;58.70;24.52;;;;;;;-0.23;46.47;101288.41;7390679;19;20066;-60
2022/12/13 06:49:25;;;;;;;60.28;26.10;;;;;;;-0.24;46.86;101285.97;7390438;19;20006;-59
2022/12/13 06:51:52;;;;;;;58.05;25.20;;;;;;;-0.32;46.88;101283.75;7389802;19;20458;-61
2022/12/13 06:54:18;;;;;;;63.42;26.08;;;;;;;-0.27;47.11;101283.81;7389643;19;20003;-58
2022/12/13 06:56:44;;;;;;;66.57;26.45;;;;;;;-0.27;47.20;101297.25;7389758;19;20017;-58
2022/12/13 06:59:11;;;;;;;70.95;27.13;;;;;;;-0.19;47.27;101294.88;7390239;19;20006;-59
2022/12/13 07:01:37;;;;;;;69.65;27.10;;;;;;;-0.27;47.67;101291.88;7388124;19;20006;-58
2022/12/13 07:04:04;;;;;;;60.45;26.25;;;;;;;-0.41;48.08;101297.66;7390014;19;19999;-58
2022/12/13 07:06:30;;;;;;;72.80;27.90;;;;;;;-0.27;48.09;101294.56;7388146;19;20027;-59
2022/12/13 07:08:57;;;;;;;78.93;30.70;;;;;;;-0.24;47.87;101302.06;7390626;19;20474;-59
2022/12/13 07:11:25;;;;;;;72.45;28.13;;;;;;;-0.23;47.85;101304.50;7386138;19;20066;-59
2022/12/13 07:13:52;;;;;;;64.68;25.63;;;;;;;-0.16;47.77;101304.28;7388952;19;19998;-59
2022/12/13 07:16:18;;;;;;;64.00;25.13;;;;;;;-0.23;48.20;101298.34;7390045;19;19991;-59
2022/12/13 07:18:44;;;;;;;65.97;26.05;;;;;;;-0.33;48.57;101292.88;7388999;19;20381;-58
2022/12/13 07:21:12;;;;;;;61.83;26.60;;;;;;;-0.21;47.90;101288.16;7388502;19;20010;-59
2022/12/13 07:23:38;;;;;;;61.28;25.17;;;;;;;-0.19;47.84;101304.78;7388593;19;19995;-59
2022/12/13 07:26:06;;;;;;;67.25;25.88;;;;;;;-0.25;47.92;101297.78;7389840;19;20002;-59
2022/12/13 07:28:34;;;;;;;71.43;29.98;;;;;;;-0.15;47.91;101297.06;7388105;19;20036;-58
2022/12/13 07:31:02;;;;;;;65.35;29.27;;;;;;;-0.21;47.93;101301.56;7387286;19;20305;-59
2022/12/13 07:33:31;;;;;;;76.35;31.27;;;;;;;-0.27;48.34;101305.28;7388131;19;20038;-58
2022/12/13 07:36:05;;;;;;;66.97;28.05;;;;;;;-0.44;48.49;101303.53;7389068;19;19999;-58
2022/12/13 07:38:32;;;;;;;64.65;26.80;;;;;;;-0.58;48.81;101307.69;7392789;19;20016;-59
2022/12/13 07:40:58;;;;;;;66.50;25.60;;;;;;;-0.59;48.90;101300.69;7393631;19;20016;-59
2022/12/13 07:43:24;;;;;;;58.53;24.95;;;;;;;-0.63;49.11;101304.94;7395739;19;20006;-59
2022/12/13 07:45:51;;;;;;;71.53;26.08;;;;;;;-0.59;48.91;101309.56;7395363;19;20001;-59
2022/12/13 07:48:18;;;;;;;61.28;26.15;;;;;;;-0.60;48.96;101315.16;7394489;19;19998;-59
2022/12/13 07:50:44;;;;;;;65.78;27.15;;;;;;;-0.55;48.70;101307.16;7392395;19;19999;-58
2022/12/13 07:53:17;;;;;;;69.50;26.05;;;;;;;-0.73;48.88;101313.69;7395371;19;20335;-59
2022/12/13 07:55:42;;;;;;;56.30;24.60;;;;;;;-0.58;48.56;101324.56;7394887;19;20494;-59
2022/12/13 07:58:09;;;;;;;52.40;24.23;;;;;;;-0.57;48.59;101322.72;7396274;19;20009;-59
2022/12/13 08:00:37;;;;;;;58.78;24.25;;;;;;;-0.62;48.52;101328.03;7394016;19;20006;-58
2022/12/13 08:03:04;;;;;;;54.30;25.27;;;;;;;-0.64;48.57;101324.75;7394076;19;20366;-59
2022/12/13 08:05:30;;;;;;;63.28;25.50;;;;;;;-0.70;48.65;101331.16;7395706;19;19999;-59
2022/12/13 08:07:56;;;;;;;57.55;24.67;;;;;;;-0.60;48.33;101328.56;7396261;19;20016;-60
2022/12/13 08:10:22;;;;;;;54.63;24.88;;;;;;;-0.63;48.60;101321.03;7393275;19;19999;-59
2022/12/13 08:12:48;;;;;;;62.45;25.45;;;;;;;-0.50;48.31;101326.00;7392280;19;20010;-60
2022/12/13 08:15:15;;;;;;;59.50;25.00;;;;;;;-0.51;48.27;101329.72;7394051;19;20087;-59
2022/12/13 08:17:41;;;;;;;58.45;25.00;;;;;;;-0.63;48.49;101331.75;7395487;19;20007;-59
2022/12/13 08:20:07;;;;;;;63.20;25.20;;;;;;;-0.64;48.14;101330.97;7392338;19;19999;-59
2022/12/13 08:22:33;;;;;;;63.53;25.75;;;;;;;-0.53;48.21;101333.75;7394934;19;20009;-59
2022/12/13 08:24:58;;;;;;;62.38;25.85;;;;;;;-0.48;48.06;101331.91;7395422;19;19991;-59
2022/12/13 08:27:24;;;;;;;64.93;25.75;;;;;;;-0.36;47.99;101327.22;7395109;19;20010;-59
2022/12/13 08:29:50;;;;;;;64.20;26.50;;;;;;;-0.36;47.88;101323.69;7395144;19;20336;-59
2022/12/13 08:32:16;;;;;;;59.85;25.75;;;;;;;-0.45;47.96;101318.00;7394664;19;20045;-59
2022/12/13 08:34:42;;;;;;;62.38;24.60;;;;;;;-0.45;48.07;101322.56;7394962;19;19991;-59
2022/12/13 08:37:08;;;;;;;59.50;25.42;;;;;;;-0.44;48.03;101325.00;7394625;19;20014;-58
2022/12/13 08:39:35;;;;;;;63.72;26.40;;;;;;;-0.57;48.45;101322.72;7393936;19;20855;-59
2022/12/13 08:42:07;;;;;;;61.22;25.60;;;;;;;-0.38;48.10;101317.78;7394482;19;20003;-59
2022/12/13 08:44:32;;;;;;;56.45;24.40;;;;;;;-0.57;48.50;101311.97;7393774;19;20002;-59
2022/12/13 08:46:58;;;;;;;67.03;26.55;;;;;;;-0.51;48.47;101305.59;7394324;19;20454;-59
2022/12/13 08:49:24;;;;;;;61.50;26.40;;;;;;;-0.36;48.34;101311.13;7391946;19;19995;-59
2022/12/13 08:51:49;;;;;;;56.20;24.23;;;;;;;-0.27;47.96;101311.44;7391488;19;20083;-59
2022/12/13 08:54:15;;;;;;;62.15;25.40;;;;;;;-0.40;48.22;101312.69;7393817;19;20469;-59
2022/12/13 08:56:41;;;;;;;57.33;23.73;;;;;;;-0.36;48.41;101308.44;7393866;19;20009;-59
2022/12/13 08:59:06;;;;;;;53.47;24.70;;;;;;;-0.38;48.29;101318.59;7394325;19;20386;-59
2022/12/13 09:01:32;;;;;;;72.18;26.48;;;;;;;-0.52;48.64;101317.41;7390294;19;20002;-59
2022/12/13 09:03:58;;;;;;;68.13;25.75;;;;;;;-0.60;48.89;101326.69;7390160;19;20510;-59
2022/12/13 09:06:23;;;;;;;62.20;26.67;;;;;;;-0.55;48.99;101324.06;7393381;19;20066;-59
2022/12/13 09:08:52;;;;;;;57.88;26.45;;;;;;;-0.39;48.67;101325.03;7392229;19;20006;-59
2022/12/13 09:11:18;;;;;;;60.70;24.95;;;;;;;-0.25;48.53;101336.16;7389597;19;20010;-59
2022/12/13 09:13:44;;;;;;;58.10;26.05;;;;;;;-0.18;48.42;101331.38;7391546;19;19991;-59
2022/12/13 09:16:14;;;;;;;68.30;28.80;;;;;;;-0.10;48.03;101330.09;7393765;19;20089;-59
2022/12/13 09:18:39;;;;;;;61.75;26.38;;;;;;;-0.18;48.23;101328.69;7391588;19;20009;-59
2022/12/13 09:21:11;;;;;;;61.67;25.90;;;;;;;-0.15;48.36;101340.00;7389437;19;19999;-58
2022/12/13 09:23:38;;;;;;;66.85;27.00;;;;;;;-0.19;48.46;101342.34;7390132;19;20009;-58
2022/12/13 09:26:04;;;;;;;61.47;26.33;;;;;;;-0.18;48.54;101344.00;7392865;19;20003;-59
2022/12/13 09:28:29;;;;;;;64.68;25.65;;;;;;;-0.19;48.62;101353.91;7392482;19;20001;-59
2022/12/13 09:30:56;;;;;;;70.10;28.50;;;;;;;-0.06;48.18;101351.88;7389945;19;20035;-59
2022/12/13 09:33:22;;;;;;;64.72;26.63;;;;;;;-0.18;48.70;101349.34;7392095;19;19998;-59
2022/12/13 09:35:48;;;;;;;66.88;27.05;;;;;;;-0.11;48.66;101339.22;7392934;19;19994;-59
2022/12/13 09:38:14;;;;;;;60.30;25.33;;;;;;;-0.01;48.38;101349.22;7392606;19;20025;-59
2022/12/13 09:40:44;;;;;;;65.60;27.27;;;;;;;-0.07;48.34;101345.69;7389040;19;20634;-59
2022/12/13 09:43:20;;;;;;;58.97;25.08;;;;;;;-0.20;48.64;101351.50;7392697;19;20014;-59
2022/12/13 09:45:47;;;;;;;63.60;26.00;;;;;;;-0.20;48.70;101346.13;7391786;19;20007;-59
2022/12/13 09:48:17;;;;;;;58.35;25.80;;;;;;;-0.20;48.71;101346.91;7391759;19;19999;-58
2022/12/13 09:50:44;;;;;;;64.18;25.77;;;;;;;-0.20;48.70;101348.81;7388491;19;20315;-59
2022/12/13 09:53:13;;;;;;;61.13;26.73;;;;;;;-0.13;48.58;101348.59;7392085;19;20363;-58
2022/12/13 09:55:46;;;;;;;59.95;24.95;;;;;;;-0.07;48.31;101356.44;7391373;19;20002;-58
2022/12/13 09:58:26;;;;;;;62.47;25.33;;;;;;;-0.25;48.84;101343.41;7390626;19;20002;-58
2022/12/13 10:00:54;;;;;;;59.35;25.92;;;;;;;0.04;48.29;101341.22;7387538;19;20459;-59
2022/12/13 10:03:23;;;;;;;60.60;26.50;;;;;;;0.17;48.07;101338.09;7391002;19;20357;-59
2022/12/13 10:05:58;;;;;;;60.10;27.17;;;;;;;0.05;48.17;101336.66;7391257;19;19998;-59
2022/12/13 10:08:35;;;;;;;61.60;26.25;;;;;;;0.03;48.35;101333.41;7392480;19;20003;-58
2022/12/13 10:11:02;;;;;;;67.43;27.75;;;;;;;-0.04;48.59;101320.22;7389068;19;20466;-59
2022/12/13 10:13:51;;;;;;;59.53;26.67;;;;;;;-0.03;48.61;101319.97;7390907;19;19994;-59
2022/12/13 10:16:35;;;;;;;64.43;27.10;;;;;;;-0.06;48.67;101314.28;7391532;19;20078;-58
2022/12/13 10:19:12;;;;;;;64.93;27.13;;;;;;;-0.13;48.86;101311.81;7392226;19;20006;-58
2022/12/13 10:21:40;;;;;;;60.88;26.50;;;;;;;0.03;48.63;101304.72;7389431;19;20454;-58
2022/12/13 10:24:29;;;;;;;68.70;26.58;;;;;;;0.06;48.41;101306.88;7390281;19;20019;-58
2022/12/13 10:27:10;;;;;;;61.92;26.63;;;;;;;0.04;48.40;101311.69;7393229;19;20002;-58
2022/12/13 10:30:11;;;;;;;60.95;25.95;;;;;;;0.02;48.75;101316.50;7391277;19;20006;-59
2022/12/13 10:32:46;;;;;;;71.78;26.27;;;;;;;0.00;48.38;101306.03;7389733;19;20006;-58
2022/12/13 10:35:26;;;;;;;65.22;27.35;;;;;;;0.16;48.53;101311.50;7389275;19;19999;-59
2022/12/13 10:37:53;;;;;;;71.68;28.35;;;;;;;0.22;48.35;101315.84;7389076;19;20002;-60
2022/12/13 10:40:31;;;;;;;73.55;28.83;;;;;;;0.30;48.19;101311.88;7388073;19;20003;-58
2022/12/13 10:43:10;;;;;;;69.13;28.88;;;;;;;0.33;48.16;101317.53;7389140;19;20006;-59
2022/12/13 10:45:36;;;;;;;71.78;28.67;;;;;;;0.37;48.36;101302.50;7390523;19;20002;-58
2022/12/13 10:48:03;;;;;;;70.53;29.52;;;;;;;0.14;48.55;101311.75;7390688;19;19995;-58
2022/12/13 10:50:30;;;;;;;72.88;30.55;;;;;;;0.17;48.54;101302.38;7387902;19;20013;-57
2022/12/13 10:52:58;;;;;;;78.30;31.60;;;;;;;0.16;48.65;101292.69;7390191;19;19999;-59
2022/12/13 10:55:33;;;;;;;78.18;30.92;;;;;;;0.20;48.56;101291.94;7390316;19;20408;-58
2022/12/13 10:58:08;;;;;;;81.72;32.00;;;;;;;0.14;48.58;101292.16;7389488;19;20027;-59
2022/12/13 11:00:41;;;;;;;81.57;33.10;;;;;;;0.28;48.42;101289.81;7387898;19;20003;-59
2022/12/13 11:03:11;;;;;;;82.57;31.67;;;;;;;0.42;48.15;101291.00;7387701;19;19999;-59
2022/12/13 11:05:39;;;;;;;74.55;32.28;;;;;;;0.30;48.49;101285.81;7389093;19;20362;-59
2022/12/13 11:08:31;;;;;;;78.30;31.80;;;;;;;0.41;48.55;101275.94;7389764;19;19995;-58
2022/12/13 11:11:02;;;;;;;82.65;32.60;;;;;;;0.61;47.81;101275.22;7387319;19;20190;-59
2022/12/13 11:13:43;;;;;;;80.82;33.13;;;;;;;0.68;47.93;101278.50;7392161;19;20100;-59
2022/12/13 11:16:26;;;;;;;74.50;31.45;;;;;;;0.66;47.79;101277.13;7394594;19;19995;-60
2022/12/13 11:18:57;;;;;;;72.97;29.55;;;;;;;0.83;47.71;101271.53;7397295;19;20026;-59
2022/12/13 11:21:33;;;;;;;70.07;31.17;;;;;;;0.84;47.84;101273.16;7394172;19;20009;-59
2022/12/13 11:24:03;;;;;;;70.03;31.58;;;;;;;0.82;47.38;101281.50;7396696;19;20007;-59